createdAt,value
2019-01-19T00:04:39.999Z,16.13
2019-01-19T00:13:52.646Z,16.37
2019-01-19T00:17:00.818Z,16.00
2019-01-19T00:20:08.875Z,17.35
2019-01-19T00:23:18.616Z,17.43
2019-01-19T00:26:26.690Z,16.50
2019-01-19T00:32:36.368Z,16.10
2019-01-19T00:41:48.407Z,17.00
2019-01-19T00:44:56.867Z,16.43
2019-01-19T00:48:06.580Z,17.77
2019-01-19T01:00:13.844Z,17.07
2019-01-19T01:09:41.134Z,17.90
2019-01-19T01:13:10.505Z,18.10
2019-01-19T01:16:18.662Z,17.27
2019-01-19T01:28:33.788Z,16.60
2019-01-19T01:31:43.224Z,16.90
2019-01-19T01:37:47.125Z,15.40
2019-01-19T01:40:55.469Z,17.47
2019-01-19T01:44:05.191Z,16.97
2019-01-19T01:47:13.756Z,16.40
2019-01-19T01:50:23.131Z,16.53
2019-01-19T01:55:54.779Z,17.70
2019-01-19T01:59:04.193Z,17.80
2019-01-19T02:05:46.860Z,17.60
2019-01-19T02:08:56.257Z,15.30
2019-01-19T02:12:04.754Z,15.50
2019-01-19T02:15:14.394Z,16.10
2019-01-19T02:36:28.358Z,16.60
2019-01-19T02:39:36.589Z,16.73
2019-01-19T02:42:46.043Z,15.60
2019-01-19T02:49:28.641Z,17.40
2019-01-19T03:04:44.732Z,15.43
2019-01-19T03:07:54.716Z,14.90
2019-01-19T03:11:04.638Z,15.57
2019-01-19T03:14:14.263Z,15.97
2019-01-19T03:23:58.980Z,17.30
2019-01-19T03:42:09.368Z,15.32
2019-01-19T04:04:05.149Z,14.03
2019-01-19T04:07:06.660Z,14.28
2019-01-19T04:10:16.148Z,13.77
2019-01-19T04:19:49.894Z,13.83
2019-01-19T04:22:59.485Z,12.67
2019-01-19T04:31:20.474Z,13.50
2019-01-19T04:39:11.594Z,13.30
2019-01-19T04:41:41.259Z,12.43
2019-01-19T04:44:10.600Z,13.17
2019-01-19T04:46:40.206Z,14.90
2019-01-19T04:49:10.222Z,14.50
2019-01-19T04:51:39.572Z,13.93
2019-01-19T04:54:09.222Z,14.58
2019-01-19T04:56:38.581Z,16.33
2019-01-19T04:59:08.478Z,13.65
2019-01-19T05:01:38.141Z,13.88
2019-01-19T05:04:26.832Z,14.00
2019-01-19T05:06:56.216Z,14.33
2019-01-19T05:09:34.570Z,13.55
2019-01-19T05:12:16.920Z,12.60
2019-01-19T05:14:46.373Z,12.40
2019-01-19T05:17:15.722Z,12.47
2019-01-19T05:19:45.355Z,12.13
2019-01-19T05:22:14.699Z,12.13
2019-01-19T05:24:44.339Z,12.20
2019-01-19T05:27:14.585Z,11.00
2019-01-19T05:29:56.226Z,10.80
2019-01-19T05:35:46.623Z,10.93
2019-01-19T05:38:16.508Z,10.28
2019-01-19T05:40:46.482Z,10.10
2019-01-19T05:43:18.926Z,11.30
2019-01-19T05:45:48.443Z,10.80
2019-01-19T05:48:17.782Z,9.90
2019-01-19T05:50:47.372Z,10.03
2019-01-19T05:53:16.713Z,10.13
2019-01-19T05:58:41.591Z,9.77
2019-01-19T06:01:11.345Z,10.03
2019-01-19T06:03:40.733Z,10.10
2019-01-19T06:06:10.514Z,9.47
2019-01-19T06:08:39.836Z,8.90
2019-01-19T06:11:09.369Z,9.40
2019-01-19T06:13:39.039Z,8.57
2019-01-19T06:16:08.515Z,8.80
2019-01-19T06:24:14.953Z,8.90
2019-01-19T06:26:44.418Z,8.57
2019-01-19T06:29:14.758Z,8.68
2019-01-19T06:31:44.814Z,9.70
2019-01-19T06:34:14.738Z,7.78
2019-01-19T06:36:44.392Z,9.95
2019-01-19T06:48:21.754Z,8.90
2019-01-19T06:50:51.691Z,7.78
2019-01-19T06:53:21.338Z,8.15
2019-01-19T06:55:50.673Z,7.37
2019-01-19T06:58:20.623Z,9.55
2019-01-19T07:00:49.965Z,8.53
2019-01-19T07:03:19.643Z,8.75
2019-01-19T07:05:48.979Z,9.07
2019-01-19T07:08:20.254Z,8.50
2019-01-19T07:11:08.754Z,8.00
2019-01-19T07:13:38.523Z,8.45
2019-01-19T07:16:07.859Z,8.90
2019-01-19T07:18:37.504Z,8.70
2019-01-19T07:21:07.181Z,9.07
2019-01-19T07:23:36.543Z,8.47
2019-01-19T07:26:25.019Z,11.40
2019-01-19T07:28:54.495Z,8.57
2019-01-19T07:31:24.145Z,8.03
2019-01-19T07:33:53.654Z,8.90
2019-01-19T07:36:23.005Z,8.00
2019-01-19T07:38:52.514Z,9.43
2019-01-19T07:41:21.872Z,13.70
2019-01-19T07:47:26.636Z,7.47
2019-01-19T07:49:56.034Z,9.40
2019-01-19T07:52:45.069Z,9.13
2019-01-19T07:58:35.622Z,7.77
2019-01-19T08:04:00.907Z,8.07
2019-01-19T08:06:30.561Z,8.73
2019-01-19T08:11:56.180Z,7.30
2019-01-19T08:14:25.805Z,7.15
2019-01-19T08:16:55.458Z,7.95
2019-01-19T08:19:24.959Z,7.25
2019-01-19T08:21:54.296Z,7.53
2019-01-19T08:24:24.157Z,6.35
2019-01-19T08:26:53.741Z,6.00
2019-01-19T08:29:23.078Z,6.57
2019-01-19T08:31:52.662Z,6.43
2019-01-19T08:34:22.308Z,5.83
2019-01-19T08:36:51.813Z,5.80
2019-01-19T08:39:21.455Z,5.80
2019-01-19T08:41:50.802Z,6.10
2019-01-19T08:44:20.157Z,5.90
2019-01-19T08:46:50.157Z,5.80
2019-01-19T08:49:19.784Z,5.70
2019-01-19T08:51:49.124Z,5.30
2019-01-19T08:54:19.009Z,4.90
2019-01-19T08:56:49.032Z,5.43
2019-01-19T08:59:18.897Z,5.05
2019-01-19T09:01:48.568Z,5.53
2019-01-19T09:04:18.166Z,5.20
2019-01-19T09:06:48.080Z,6.00
2019-01-19T09:09:17.729Z,5.60
2019-01-19T09:11:47.071Z,5.73
2019-01-19T09:14:17.039Z,6.22
2019-01-19T09:16:46.386Z,5.60
2019-01-19T09:19:16.009Z,5.80
2019-01-19T09:21:45.936Z,9.68
2019-01-19T09:27:37.512Z,8.43
2019-01-19T09:30:26.198Z,6.73
2019-01-19T09:32:55.831Z,5.78
2019-01-19T09:35:25.455Z,6.25
2019-01-19T09:37:54.956Z,6.00
2019-01-19T09:40:24.355Z,8.00
2019-01-19T09:42:53.887Z,5.87
2019-01-19T09:45:23.457Z,7.67
2019-01-19T09:47:53.191Z,6.50
2019-01-19T09:50:23.149Z,5.33
2019-01-19T09:52:52.506Z,4.60
2019-01-19T09:55:22.187Z,6.47
2019-01-19T09:58:04.246Z,7.43
2019-01-19T10:00:37.587Z,4.77
2019-01-19T10:03:15.270Z,4.65
2019-01-19T10:05:57.620Z,5.13
2019-01-19T10:08:27.269Z,5.40
2019-01-19T10:14:26.837Z,4.43
2019-01-19T10:16:56.159Z,4.87
2019-01-19T10:19:25.508Z,4.00
2019-01-19T10:22:14.281Z,3.80
2019-01-19T10:24:56.342Z,4.60
2019-01-19T10:27:25.967Z,4.37
2019-01-19T10:29:55.314Z,5.63
2019-01-19T10:32:25.172Z,4.00
2019-01-19T10:34:56.133Z,3.80
2019-01-19T10:37:25.455Z,3.40
2019-01-19T10:42:50.557Z,3.20
2019-01-19T10:48:49.113Z,3.80
2019-01-19T10:51:19.025Z,4.62
2019-01-19T10:53:48.369Z,3.50
2019-01-19T10:56:17.997Z,5.57
2019-01-19T10:58:47.336Z,3.93
2019-01-19T11:01:16.960Z,3.77
2019-01-19T11:03:46.306Z,3.10
2019-01-19T11:06:15.882Z,3.40
2019-01-19T11:08:45.220Z,2.60
2019-01-19T11:14:18.373Z,3.43
2019-01-19T11:16:48.006Z,3.10
2019-01-19T11:19:17.371Z,3.30
2019-01-19T11:21:46.988Z,3.05
2019-01-19T11:24:16.932Z,3.23
2019-01-19T11:29:55.117Z,3.17
2019-01-19T11:32:24.735Z,3.07
2019-01-19T11:34:54.438Z,2.57
2019-01-19T11:37:24.063Z,2.55
2019-01-19T11:40:05.168Z,3.20
2019-01-19T11:42:34.498Z,3.27
2019-01-19T11:45:16.534Z,2.50
2019-01-19T11:47:58.721Z,2.70
2019-01-19T11:50:42.253Z,2.17
2019-01-19T11:53:11.585Z,3.30
2019-01-19T11:56:00.445Z,3.13
2019-01-19T11:58:30.387Z,2.67
2019-01-19T12:00:59.721Z,2.70
2019-01-19T12:03:42.013Z,2.70
2019-01-19T12:06:11.353Z,2.97
2019-01-19T12:08:40.692Z,4.00
2019-01-19T12:11:10.312Z,3.67
2019-01-19T12:13:39.665Z,3.60
2019-01-19T12:16:08.982Z,3.20
2019-01-19T12:18:40.253Z,4.90
2019-01-19T12:21:30.136Z,3.17
2019-01-19T12:23:59.491Z,3.43
2019-01-19T12:26:28.817Z,3.70
2019-01-19T12:28:58.482Z,2.67
2019-01-19T12:34:28.770Z,3.27
2019-01-19T12:36:58.107Z,3.13
2019-01-19T12:39:27.712Z,3.10
2019-01-19T12:41:57.034Z,3.00
2019-01-19T12:44:26.737Z,3.30
2019-01-19T12:46:57.066Z,3.80
2019-01-19T12:49:32.818Z,4.80
2019-01-19T12:55:17.396Z,3.80
2019-01-19T12:57:53.833Z,3.70
2019-01-19T13:00:43.125Z,3.25
2019-01-19T13:03:12.727Z,3.07
2019-01-19T13:08:55.131Z,3.50
2019-01-19T13:12:03.552Z,3.20
2019-01-19T13:21:16.299Z,4.53
2019-01-19T13:27:26.627Z,4.37
2019-01-19T13:30:34.688Z,4.00
2019-01-19T13:40:07.282Z,3.70
2019-01-19T13:43:15.322Z,4.43
2019-01-19T13:46:23.389Z,2.93
2019-01-19T13:49:33.369Z,3.10
2019-01-19T13:52:42.774Z,3.20
2019-01-19T13:55:50.781Z,3.10
2019-01-19T13:59:00.452Z,4.00
2019-01-19T14:02:08.741Z,3.10
2019-01-19T14:05:16.798Z,3.33
2019-01-19T14:08:24.852Z,3.07
2019-01-19T14:11:32.912Z,2.97
2019-01-19T14:14:40.956Z,2.93
2019-01-19T14:17:50.430Z,2.63
2019-01-19T14:27:08.906Z,3.00
2019-01-19T14:30:18.492Z,3.03
2019-01-19T14:33:18.765Z,2.60
2019-01-19T14:36:03.141Z,3.90
2019-01-19T14:38:56.888Z,3.17
2019-01-19T14:42:03.835Z,3.70
2019-01-19T14:45:13.814Z,4.15
2019-01-19T14:48:28.115Z,3.17
2019-01-19T14:57:41.593Z,2.37
2019-01-19T15:03:52.571Z,5.80
2019-01-19T15:13:04.736Z,3.50
2019-01-19T15:16:12.905Z,3.40
2019-01-19T15:19:21.713Z,3.20
2019-01-19T15:28:33.628Z,2.67
2019-01-19T15:34:43.823Z,3.00
2019-01-19T15:40:54.909Z,3.47
2019-01-19T15:44:02.969Z,3.17
2019-01-19T15:47:11.007Z,4.77
2019-01-19T15:50:20.387Z,4.20
2019-01-19T15:56:30.704Z,4.63
2019-01-19T15:59:20.955Z,3.50
2019-01-19T16:05:50.252Z,4.40
2019-01-19T16:09:00.230Z,3.83
2019-01-19T16:15:31.967Z,4.17
2019-01-19T16:18:40.028Z,4.27
2019-01-19T16:24:49.691Z,4.50
2019-01-19T16:27:57.737Z,3.50
2019-01-19T16:31:06.130Z,3.70
2019-01-19T16:40:19.104Z,3.80
2019-01-19T16:43:27.397Z,4.57
2019-01-19T16:46:35.700Z,4.43
2019-01-19T16:49:45.105Z,4.37
2019-01-19T16:52:53.788Z,3.80
2019-01-19T16:56:03.326Z,4.97
2019-01-19T16:59:11.667Z,4.80
2019-01-19T17:02:21.122Z,3.67
2019-01-19T17:08:41.049Z,4.37
2019-01-19T17:11:49.105Z,3.90
2019-01-19T17:17:59.045Z,2.80
2019-01-19T17:21:08.812Z,3.90
2019-01-19T17:24:16.857Z,3.90
2019-01-19T17:42:37.987Z,5.00
2019-01-19T17:45:47.364Z,5.20
2019-01-19T17:48:55.940Z,4.90
2019-01-19T17:52:10.991Z,4.70
2019-01-19T17:55:19.029Z,4.77
2019-01-19T17:58:27.363Z,4.87
2019-01-19T18:01:35.712Z,4.62
2019-01-19T18:04:17.971Z,4.33
2019-01-19T18:07:27.360Z,4.10
2019-01-19T18:29:21.227Z,5.50
2019-01-19T18:32:29.294Z,5.40
2019-01-19T18:35:37.331Z,5.30
2019-01-19T18:38:45.392Z,5.73
2019-01-19T18:44:56.789Z,5.90
2019-01-19T18:48:06.554Z,6.10
2019-01-19T18:50:56.745Z,5.87
2019-01-19T18:53:47.470Z,5.80
2019-01-19T19:02:48.476Z,5.90
2019-01-19T19:05:38.837Z,6.10
2019-01-19T19:08:29.276Z,5.77
2019-01-19T19:11:37.377Z,5.53
2019-01-19T19:14:45.429Z,6.30
2019-01-19T19:17:53.529Z,6.23
2019-01-19T19:23:45.481Z,5.40
2019-01-19T19:35:42.320Z,5.30
2019-01-19T19:38:50.385Z,5.73
2019-01-19T19:41:59.043Z,6.03
2019-01-19T19:45:08.938Z,6.63
2019-01-19T19:51:14.534Z,6.57
2019-01-19T19:53:43.881Z,6.73
2019-01-19T19:59:22.312Z,6.50
2019-01-19T20:01:51.650Z,6.00
2019-01-19T20:04:21.010Z,6.70
2019-01-19T20:06:50.609Z,7.30
2019-01-19T20:09:39.324Z,7.27
2019-01-19T20:12:08.793Z,7.27
2019-01-19T20:14:38.679Z,6.45
2019-01-19T20:20:42.506Z,6.53
2019-01-19T20:23:11.858Z,6.23
2019-01-19T20:25:41.194Z,8.30
2019-01-19T20:28:10.749Z,7.10
2019-01-19T20:30:40.129Z,7.23
2019-01-19T20:33:09.709Z,7.60
2019-01-19T20:35:39.059Z,8.10
2019-01-19T20:38:08.699Z,8.40
2019-01-19T20:40:38.033Z,8.83
2019-01-19T20:43:07.696Z,10.27
2019-01-19T20:45:38.684Z,7.93
2019-01-19T20:48:08.298Z,7.73
2019-01-19T20:50:37.812Z,8.53
2019-01-19T20:53:26.523Z,7.60
2019-01-19T20:55:55.863Z,8.03
2019-01-19T20:58:25.209Z,8.90
2019-01-19T21:00:54.833Z,8.60
2019-01-19T21:03:24.239Z,8.70
2019-01-19T21:05:53.791Z,9.70
2019-01-19T21:08:23.138Z,8.70
2019-01-19T21:10:52.769Z,8.57
2019-01-19T21:13:44.334Z,9.20
2019-01-19T21:16:13.933Z,8.23
2019-01-19T21:18:43.528Z,8.17
2019-01-19T21:21:12.868Z,8.47
2019-01-19T21:23:42.222Z,9.20
2019-01-19T21:26:12.056Z,9.93
2019-01-19T21:28:41.717Z,8.98
2019-01-19T21:31:13.145Z,9.80
2019-01-19T21:33:42.797Z,9.30
2019-01-19T21:36:18.495Z,10.13
2019-01-19T21:38:47.895Z,9.40
2019-01-19T21:41:17.235Z,9.30
2019-01-19T21:43:46.905Z,10.10
2019-01-19T21:46:17.168Z,9.25
2019-01-19T21:48:46.815Z,10.00
2019-01-19T21:51:38.076Z,10.82
2019-01-19T21:54:07.732Z,13.03
2019-01-19T21:56:37.366Z,14.60
2019-01-19T21:59:06.983Z,12.50
2019-01-19T22:01:37.939Z,12.97
2019-01-19T22:09:38.011Z,16.30
2019-01-19T22:12:07.689Z,14.97
2019-01-19T22:14:37.042Z,16.20
2019-01-19T22:17:06.384Z,19.40
2019-01-19T22:19:35.959Z,25.60
2019-01-19T22:22:26.386Z,14.70
2019-01-19T22:30:40.906Z,11.78
2019-01-19T22:38:59.335Z,12.13
2019-01-19T22:44:31.594Z,12.58
2019-01-19T22:47:01.391Z,12.93
2019-01-19T22:49:31.037Z,12.50
2019-01-19T22:52:00.404Z,13.00
2019-01-19T22:54:30.043Z,12.60
2019-01-19T22:56:59.415Z,13.07
2019-01-19T22:59:29.599Z,13.85
2019-01-19T23:02:39.186Z,14.10
2019-01-19T23:05:09.102Z,13.27
2019-01-19T23:07:38.456Z,13.17
2019-01-19T23:10:48.182Z,13.93
2019-01-19T23:13:18.168Z,14.98
2019-01-19T23:15:47.513Z,12.93
2019-01-19T23:18:17.414Z,13.60
2019-01-19T23:20:47.133Z,14.20
2019-01-19T23:23:17.498Z,16.07
2019-01-19T23:25:47.101Z,16.00
2019-01-19T23:28:17.474Z,14.98
2019-01-19T23:31:06.444Z,15.40
2019-01-19T23:33:36.029Z,14.27
2019-01-19T23:36:05.370Z,13.77
2019-01-19T23:38:35.030Z,14.95
2019-01-19T23:41:08.917Z,15.33
2019-01-19T23:43:44.578Z,13.80
2019-01-19T23:46:14.236Z,12.63
2019-01-19T23:48:43.579Z,14.30
2019-01-19T23:51:13.234Z,13.60
2019-01-19T23:56:53.332Z,12.73
2019-01-19T23:59:23.623Z,14.43
